createdAt,value
2022-10-09T00:02:18.994Z,66.40
2022-10-09T00:05:09.489Z,66.80
2022-10-09T00:07:58.829Z,66.60
2022-10-09T00:10:48.949Z,66.60
2022-10-09T00:13:38.885Z,66.60
2022-10-09T00:16:29.007Z,66.80
2022-10-09T00:19:19.772Z,66.90
2022-10-09T00:22:09.025Z,67.20
2022-10-09T00:24:58.370Z,67.10
2022-10-09T00:27:47.716Z,67.10
2022-10-09T00:30:40.819Z,67.30
2022-10-09T00:33:30.160Z,68.10
2022-10-09T00:36:24.477Z,67.40
2022-10-09T00:39:14.021Z,68.00
2022-10-09T00:42:04.346Z,67.50
2022-10-09T00:45:00.022Z,67.60
2022-10-09T00:47:53.099Z,68.10
2022-10-09T00:50:46.477Z,67.90
2022-10-09T00:53:37.243Z,68.00
2022-10-09T00:56:26.988Z,68.10
2022-10-09T00:59:17.165Z,67.80
2022-10-09T01:02:06.609Z,67.80
2022-10-09T01:04:55.981Z,67.80
2022-10-09T01:07:51.044Z,67.80
2022-10-09T01:10:50.284Z,68.90
2022-10-09T01:13:48.402Z,69.00
2022-10-09T01:16:43.497Z,69.10
2022-10-09T01:19:52.140Z,68.60
2022-10-09T01:23:04.074Z,70.00
2022-10-09T01:26:10.733Z,69.70
2022-10-09T01:29:06.785Z,69.90
2022-10-09T01:31:57.100Z,69.40
2022-10-09T01:34:47.409Z,68.90
2022-10-09T01:37:38.296Z,69.10
2022-10-09T01:40:29.738Z,69.60
2022-10-09T01:43:19.136Z,69.80
2022-10-09T01:46:25.097Z,69.80
2022-10-09T01:49:29.098Z,72.10
2022-10-09T01:52:43.315Z,71.20
2022-10-09T01:55:41.052Z,72.60
2022-10-09T01:58:35.400Z,71.60
2022-10-09T02:01:30.022Z,71.20
2022-10-09T02:04:20.808Z,71.40
2022-10-09T02:07:10.884Z,71.60
2022-10-09T02:10:03.106Z,70.80
2022-10-09T02:12:57.540Z,71.20
2022-10-09T02:15:52.700Z,71.70
2022-10-09T02:18:47.617Z,71.50
2022-10-09T02:21:46.336Z,71.90
2022-10-09T02:24:38.909Z,71.90
2022-10-09T02:27:29.109Z,70.90
2022-10-09T02:30:21.388Z,70.80
2022-10-09T02:33:10.903Z,71.20
2022-10-09T02:36:02.041Z,70.90
2022-10-09T02:38:51.365Z,71.40
2022-10-09T02:41:40.779Z,70.70
2022-10-09T02:44:30.187Z,70.70
2022-10-09T02:47:19.729Z,70.80
2022-10-09T02:50:10.653Z,70.70
2022-10-09T02:53:01.337Z,71.10
2022-10-09T02:55:50.621Z,71.50
2022-10-09T02:58:40.919Z,71.20
2022-10-09T03:01:31.223Z,71.40
2022-10-09T03:04:20.601Z,71.70
2022-10-09T03:07:09.894Z,72.00
2022-10-09T03:10:01.481Z,72.10
2022-10-09T03:12:51.094Z,73.50
2022-10-09T03:15:41.147Z,72.30
2022-10-09T03:18:30.600Z,72.40
2022-10-09T03:21:22.585Z,72.50
2022-10-09T03:24:12.279Z,73.10
2022-10-09T03:27:02.970Z,72.60
2022-10-09T03:29:52.285Z,73.00
2022-10-09T03:32:41.929Z,72.40
2022-10-09T03:35:31.256Z,72.40
2022-10-09T03:38:20.579Z,72.30
2022-10-09T03:41:10.089Z,72.20
2022-10-09T03:44:00.871Z,72.20
2022-10-09T03:46:50.216Z,72.90
2022-10-09T03:49:39.641Z,72.50
2022-10-09T03:52:28.944Z,72.60
2022-10-09T03:55:18.587Z,72.70
2022-10-09T03:58:08.319Z,72.90
2022-10-09T04:00:59.072Z,74.00
2022-10-09T04:03:48.529Z,74.80
2022-10-09T04:06:37.791Z,74.40
2022-10-09T04:09:27.077Z,74.50
2022-10-09T04:12:16.478Z,74.60
2022-10-09T04:15:06.530Z,74.80
2022-10-09T04:17:57.266Z,74.80
2022-10-09T04:20:49.954Z,75.60
2022-10-09T04:23:39.540Z,75.30
2022-10-09T04:26:28.882Z,75.20
2022-10-09T04:29:18.209Z,75.00
2022-10-09T04:32:07.866Z,75.00
2022-10-09T04:34:59.146Z,75.00
2022-10-09T04:37:48.436Z,75.60
2022-10-09T04:40:37.737Z,74.60
2022-10-09T04:43:27.154Z,74.40
2022-10-09T04:46:16.726Z,74.40
2022-10-09T04:49:06.274Z,74.70
2022-10-09T04:51:57.001Z,74.60
2022-10-09T04:54:46.338Z,75.20
2022-10-09T04:57:35.729Z,74.80
2022-10-09T05:00:25.048Z,74.70
2022-10-09T05:03:14.699Z,74.80
2022-10-09T05:06:06.263Z,74.60
2022-10-09T05:08:57.046Z,74.90
2022-10-09T05:11:46.363Z,75.00
2022-10-09T05:14:35.695Z,74.80
2022-10-09T05:17:25.152Z,74.90
2022-10-09T05:20:14.518Z,75.10
2022-10-09T05:23:03.876Z,75.30
2022-10-09T05:25:58.195Z,75.50
2022-10-09T05:28:48.123Z,77.20
2022-10-09T05:31:38.209Z,75.70
2022-10-09T05:34:27.657Z,75.90
2022-10-09T05:37:16.944Z,76.20
2022-10-09T05:40:07.755Z,76.40
2022-10-09T05:42:58.429Z,77.10
2022-10-09T05:45:48.094Z,78.10
2022-10-09T05:48:37.985Z,78.70
2022-10-09T05:51:30.356Z,81.50
2022-10-09T05:54:20.020Z,85.30
2022-10-09T05:57:10.098Z,88.30
2022-10-09T06:00:00.782Z,90.50
2022-10-09T06:02:50.294Z,91.50
2022-10-09T06:05:39.873Z,92.60
2022-10-09T06:08:29.761Z,93.30
2022-10-09T06:11:21.949Z,93.70
2022-10-09T06:14:13.788Z,94.10
2022-10-09T06:17:04.642Z,94.00
2022-10-09T06:19:54.070Z,94.10
2022-10-09T06:22:43.380Z,93.90
2022-10-09T06:25:32.715Z,93.80
2022-10-09T06:28:22.698Z,93.80
2022-10-09T06:31:14.846Z,93.80
2022-10-09T06:34:05.879Z,94.10
2022-10-09T06:36:55.161Z,94.30
2022-10-09T06:39:44.513Z,94.50
2022-10-09T06:42:33.832Z,93.80
2022-10-09T06:45:29.929Z,92.50
2022-10-09T06:48:19.269Z,91.40
2022-10-09T06:51:12.633Z,91.00
2022-10-09T06:54:05.228Z,90.00
2022-10-09T06:56:55.850Z,87.70
2022-10-09T06:59:45.844Z,86.90
2022-10-09T07:02:37.328Z,84.10
2022-10-09T07:05:28.621Z,82.50
2022-10-09T07:08:19.300Z,81.40
2022-10-09T07:11:14.345Z,79.60
2022-10-09T07:14:07.100Z,77.50
2022-10-09T07:16:56.629Z,79.00
2022-10-09T07:19:45.954Z,80.10
2022-10-09T07:22:35.301Z,77.60
2022-10-09T07:25:26.116Z,76.60
2022-10-09T07:28:15.596Z,76.60
2022-10-09T07:31:05.732Z,78.00
2022-10-09T07:33:56.930Z,78.30
2022-10-09T07:36:46.295Z,78.00
2022-10-09T07:39:36.419Z,78.00
2022-10-09T07:42:27.137Z,78.30
2022-10-09T07:45:16.871Z,78.00
2022-10-09T07:48:06.296Z,78.50
2022-10-09T07:50:55.951Z,78.00
2022-10-09T07:53:45.931Z,77.70
2022-10-09T07:56:38.600Z,77.30
2022-10-09T07:59:29.331Z,76.20
2022-10-09T08:02:18.777Z,75.70
2022-10-09T08:05:09.147Z,76.00
2022-10-09T08:07:58.641Z,76.00
2022-10-09T08:10:48.000Z,75.80
2022-10-09T08:13:37.435Z,75.20
2022-10-09T08:16:29.992Z,74.60
2022-10-09T08:19:19.370Z,73.00
2022-10-09T08:22:08.771Z,73.50
2022-10-09T08:24:58.128Z,73.00
2022-10-09T08:27:47.490Z,72.20
2022-10-09T08:30:36.808Z,71.10
2022-10-09T08:33:27.957Z,69.60
2022-10-09T08:36:17.349Z,68.10
2022-10-09T08:39:06.996Z,67.40
2022-10-09T08:41:57.770Z,66.30
2022-10-09T08:44:49.750Z,65.10
2022-10-09T08:47:44.258Z,63.70
2022-10-09T08:50:38.533Z,62.50
2022-10-09T08:53:35.839Z,61.50
2022-10-09T08:56:26.567Z,61.10
2022-10-09T08:59:16.060Z,61.80
2022-10-09T09:02:28.707Z,61.30
2022-10-09T09:05:36.729Z,60.10
2022-10-09T09:08:38.083Z,59.00
2022-10-09T09:11:37.635Z,59.40
2022-10-09T09:14:48.936Z,59.20
2022-10-09T09:17:50.243Z,58.10
2022-10-09T09:20:50.073Z,57.80
2022-10-09T09:23:43.702Z,57.00
2022-10-09T09:26:33.041Z,57.00
2022-10-09T09:29:31.021Z,56.60
2022-10-09T09:32:25.225Z,56.30
2022-10-09T09:35:23.410Z,55.60
2022-10-09T09:38:14.501Z,55.10
2022-10-09T09:41:05.589Z,55.50
2022-10-09T09:43:54.917Z,55.40
2022-10-09T09:46:47.026Z,54.80
2022-10-09T09:49:36.397Z,54.40
2022-10-09T09:52:29.938Z,54.60
2022-10-09T09:55:29.487Z,54.30
2022-10-09T09:58:19.502Z,52.30
2022-10-09T10:01:09.088Z,53.60
2022-10-09T10:04:00.752Z,53.50
2022-10-09T10:06:50.148Z,53.10
2022-10-09T10:09:40.774Z,53.10
2022-10-09T10:12:31.960Z,52.70
2022-10-09T10:15:25.487Z,50.60
2022-10-09T10:18:17.698Z,49.10
2022-10-09T10:21:13.557Z,48.70
2022-10-09T10:24:06.289Z,47.90
2022-10-09T10:27:01.673Z,48.80
2022-10-09T10:29:57.463Z,48.80
2022-10-09T10:32:55.674Z,48.40
2022-10-09T10:35:45.875Z,48.10
2022-10-09T10:38:40.643Z,49.00
2022-10-09T10:41:35.736Z,48.50
2022-10-09T10:44:38.080Z,48.00
2022-10-09T10:47:35.920Z,47.40
2022-10-09T10:50:30.802Z,47.00
2022-10-09T10:53:29.935Z,47.10
2022-10-09T10:56:29.913Z,45.90
2022-10-09T10:59:39.559Z,44.50
2022-10-09T11:03:04.914Z,43.40
2022-10-09T11:05:58.631Z,44.10
2022-10-09T11:09:03.886Z,44.60
2022-10-09T11:12:03.110Z,43.10
2022-10-09T11:15:03.049Z,43.30
2022-10-09T11:18:01.486Z,43.70
2022-10-09T11:21:18.329Z,42.40
2022-10-09T11:24:37.888Z,41.00
2022-10-09T11:27:40.481Z,40.00
2022-10-09T11:30:34.374Z,40.10
2022-10-09T11:33:35.598Z,39.50
2022-10-09T11:36:29.129Z,39.00
2022-10-09T11:39:23.556Z,39.20
2022-10-09T11:42:18.693Z,39.10
2022-10-09T11:45:21.919Z,39.10
2022-10-09T11:48:20.668Z,39.00
2022-10-09T11:51:19.811Z,39.20
2022-10-09T11:54:15.272Z,39.30
2022-10-09T11:57:07.097Z,39.50
2022-10-09T12:00:07.783Z,39.60
2022-10-09T12:03:01.759Z,39.60
2022-10-09T12:05:51.541Z,39.80
2022-10-09T12:08:45.058Z,40.00
2022-10-09T12:11:36.107Z,40.20
2022-10-09T12:14:28.127Z,40.50
2022-10-09T12:17:34.253Z,40.80
2022-10-09T12:20:25.920Z,40.90
2022-10-09T12:23:26.837Z,41.20
2022-10-09T12:26:19.777Z,41.20
2022-10-09T12:29:20.424Z,41.30
2022-10-09T12:32:17.034Z,41.70
2022-10-09T12:35:19.861Z,41.80
2022-10-09T12:38:18.391Z,42.00
2022-10-09T12:41:19.379Z,42.10
2022-10-09T12:44:24.708Z,42.10
2022-10-09T12:47:21.587Z,42.40
2022-10-09T12:50:25.258Z,42.40
2022-10-09T12:53:19.011Z,42.60
2022-10-09T12:56:13.298Z,42.50
2022-10-09T12:59:04.276Z,42.70
2022-10-09T13:01:59.442Z,42.70
2022-10-09T13:05:02.879Z,42.60
2022-10-09T13:07:54.194Z,42.70
2022-10-09T13:10:43.643Z,42.70
2022-10-09T13:13:32.933Z,42.90
2022-10-09T13:16:23.000Z,43.10
2022-10-09T13:19:25.332Z,43.20
2022-10-09T13:22:21.590Z,43.50
2022-10-09T13:25:11.097Z,43.60
2022-10-09T13:28:00.548Z,43.50
2022-10-09T13:30:50.008Z,43.50
2022-10-09T13:33:39.391Z,43.50
2022-10-09T13:36:30.159Z,43.60
2022-10-09T13:39:19.509Z,43.80
2022-10-09T13:42:10.470Z,43.90
2022-10-09T13:45:00.371Z,44.30
2022-10-09T13:47:50.042Z,44.20
2022-10-09T13:50:39.632Z,44.20
2022-10-09T13:53:30.377Z,44.20
2022-10-09T13:56:19.764Z,44.30
2022-10-09T13:59:09.077Z,44.30
2022-10-09T14:01:58.794Z,44.40
2022-10-09T14:04:48.223Z,44.40
2022-10-09T14:07:37.595Z,44.40
2022-10-09T14:10:28.685Z,44.30
2022-10-09T14:13:19.348Z,44.20
2022-10-09T14:16:11.120Z,43.80
2022-10-09T14:19:02.968Z,43.60
2022-10-09T14:21:52.432Z,43.50
2022-10-09T14:24:42.035Z,43.30
2022-10-09T14:27:32.882Z,43.30
2022-10-09T14:30:22.272Z,43.10
2022-10-09T14:33:12.623Z,43.20
2022-10-09T14:36:08.145Z,43.20
2022-10-09T14:38:57.672Z,43.30
2022-10-09T14:41:47.028Z,43.30
2022-10-09T14:44:37.973Z,43.40
2022-10-09T14:47:27.305Z,43.50
2022-10-09T14:50:16.839Z,43.40
2022-10-09T14:53:06.345Z,44.20
2022-10-09T14:55:55.710Z,43.60
2022-10-09T14:58:46.560Z,43.70
2022-10-09T15:01:37.521Z,43.60
2022-10-09T15:04:27.218Z,43.60
2022-10-09T15:07:16.549Z,43.60
2022-10-09T15:10:06.905Z,43.70
2022-10-09T15:12:56.316Z,44.00
2022-10-09T15:15:45.668Z,43.90
2022-10-09T15:18:36.799Z,43.90
2022-10-09T15:21:29.941Z,43.90
2022-10-09T15:24:19.265Z,44.10
2022-10-09T15:27:08.604Z,43.70
2022-10-09T15:29:57.996Z,43.60
2022-10-09T15:32:47.330Z,43.60
2022-10-09T15:35:38.074Z,43.50
2022-10-09T15:38:27.690Z,43.40
2022-10-09T15:41:26.213Z,43.30
2022-10-09T15:44:18.155Z,43.20
2022-10-09T15:47:07.628Z,43.10
2022-10-09T15:49:57.020Z,43.00
2022-10-09T15:52:47.884Z,42.80
2022-10-09T15:55:38.595Z,42.70
2022-10-09T15:58:27.914Z,42.80
2022-10-09T16:01:18.972Z,42.70
2022-10-09T16:04:08.327Z,42.80
2022-10-09T16:06:58.178Z,42.80
2022-10-09T16:09:48.878Z,42.70
2022-10-09T16:12:38.218Z,42.80
2022-10-09T16:15:27.585Z,42.70
2022-10-09T16:18:18.944Z,42.70
2022-10-09T16:21:10.515Z,42.70
2022-10-09T16:24:00.719Z,42.70
2022-10-09T16:26:51.952Z,42.80
2022-10-09T16:29:41.355Z,42.80
2022-10-09T16:32:30.931Z,42.80
2022-10-09T16:35:20.441Z,42.90
2022-10-09T16:38:10.079Z,42.90
2022-10-09T16:41:02.900Z,43.00
2022-10-09T16:43:56.080Z,42.90
2022-10-09T16:46:45.478Z,43.00
2022-10-09T16:49:34.971Z,43.00
2022-10-09T16:52:24.433Z,43.00
2022-10-09T16:55:13.876Z,43.10
2022-10-09T16:58:03.211Z,43.20
2022-10-09T17:01:03.930Z,43.40
2022-10-09T17:03:57.910Z,43.70
2022-10-09T17:06:47.275Z,43.70
2022-10-09T17:09:37.515Z,43.80
2022-10-09T17:12:26.954Z,43.90
2022-10-09T17:15:16.849Z,44.00
2022-10-09T17:18:07.942Z,44.10
2022-10-09T17:20:57.249Z,44.40
2022-10-09T17:23:47.241Z,44.30
2022-10-09T17:26:37.020Z,44.30
2022-10-09T17:29:27.106Z,44.50
2022-10-09T17:32:16.372Z,44.50
2022-10-09T17:35:08.849Z,44.50
2022-10-09T17:37:58.175Z,44.70
2022-10-09T17:40:47.526Z,44.70
2022-10-09T17:43:37.342Z,44.80
2022-10-09T17:46:28.856Z,44.90
2022-10-09T17:49:18.251Z,45.00
2022-10-09T17:52:08.996Z,45.00
2022-10-09T17:54:58.372Z,45.10
2022-10-09T17:57:48.097Z,45.10
2022-10-09T18:00:39.309Z,45.30
2022-10-09T18:03:28.942Z,45.40
2022-10-09T18:06:22.807Z,45.40
2022-10-09T18:09:13.477Z,45.50
2022-10-09T18:12:03.179Z,45.80
2022-10-09T18:14:52.506Z,45.70
2022-10-09T18:17:42.220Z,46.00
2022-10-09T18:20:33.094Z,46.30
2022-10-09T18:23:22.950Z,46.50
2022-10-09T18:26:16.556Z,46.30
2022-10-09T18:29:06.643Z,46.60
2022-10-09T18:31:56.490Z,46.80
2022-10-09T18:34:46.717Z,46.60
2022-10-09T18:37:36.258Z,46.70
2022-10-09T18:40:25.706Z,46.60
2022-10-09T18:43:16.497Z,46.90
2022-10-09T18:46:06.191Z,47.30
2022-10-09T18:48:57.757Z,47.00
2022-10-09T18:51:48.808Z,47.20
2022-10-09T18:54:38.560Z,47.10
2022-10-09T18:57:28.942Z,47.20
2022-10-09T19:00:19.910Z,47.30
2022-10-09T19:03:09.298Z,47.30
2022-10-09T19:05:58.704Z,47.30
2022-10-09T19:08:48.391Z,47.30
2022-10-09T19:11:37.805Z,47.40
2022-10-09T19:14:27.215Z,47.80
2022-10-09T19:17:17.937Z,47.80
2022-10-09T19:20:09.065Z,47.90
2022-10-09T19:22:58.416Z,48.00
2022-10-09T19:25:49.462Z,48.00
2022-10-09T19:28:39.363Z,48.00
2022-10-09T19:31:28.759Z,47.90
2022-10-09T19:34:20.090Z,47.90
2022-10-09T19:37:09.442Z,48.00
2022-10-09T19:39:59.107Z,48.10
2022-10-09T19:42:48.538Z,48.00
2022-10-09T19:45:38.172Z,48.10
2022-10-09T19:48:27.678Z,48.10
2022-10-09T19:51:21.645Z,48.10
2022-10-09T19:54:11.096Z,48.20
2022-10-09T19:57:01.144Z,48.00
2022-10-09T19:59:50.538Z,48.00
2022-10-09T20:02:40.153Z,48.10
2022-10-09T20:05:29.769Z,48.00
2022-10-09T20:08:20.470Z,48.10
2022-10-09T20:11:11.519Z,48.00
2022-10-09T20:14:00.881Z,48.10
2022-10-09T20:16:50.301Z,48.10
2022-10-09T20:19:43.495Z,48.00
2022-10-09T20:22:34.926Z,48.10
2022-10-09T20:25:27.641Z,47.90
2022-10-09T20:28:17.114Z,48.00
2022-10-09T20:31:09.780Z,47.90
2022-10-09T20:34:00.090Z,48.10
2022-10-09T20:36:50.026Z,48.10
2022-10-09T20:39:39.395Z,48.10
2022-10-09T20:42:30.171Z,47.90
2022-10-09T20:45:19.620Z,48.10
2022-10-09T20:48:09.321Z,48.00
2022-10-09T20:51:01.549Z,48.10
2022-10-09T20:53:55.795Z,48.10
2022-10-09T20:56:45.499Z,48.20
2022-10-09T20:59:36.206Z,48.20
2022-10-09T21:02:25.723Z,48.40
2022-10-09T21:05:15.139Z,48.40
2022-10-09T21:08:04.489Z,48.40
2022-10-09T21:10:53.852Z,48.40
2022-10-09T21:13:43.289Z,48.60
2022-10-09T21:16:34.076Z,48.60
2022-10-09T21:19:23.390Z,48.50
2022-10-09T21:22:12.773Z,48.60
2022-10-09T21:25:02.112Z,48.50
2022-10-09T21:27:51.389Z,48.50
2022-10-09T21:30:41.834Z,48.50
2022-10-09T21:33:32.605Z,48.40
2022-10-09T21:36:33.046Z,48.50
2022-10-09T21:39:22.605Z,48.70
2022-10-09T21:42:11.883Z,48.60
2022-10-09T21:45:01.231Z,48.70
2022-10-09T21:47:50.531Z,48.80
2022-10-09T21:50:41.257Z,48.90
2022-10-09T21:53:30.620Z,49.10
2022-10-09T21:56:19.950Z,49.10
2022-10-09T21:59:09.844Z,49.30
2022-10-09T22:01:59.128Z,49.30
2022-10-09T22:04:48.954Z,49.40
2022-10-09T22:07:39.722Z,49.50
2022-10-09T22:10:29.076Z,49.50
2022-10-09T22:13:18.496Z,49.50
2022-10-09T22:16:10.658Z,49.70
2022-10-09T22:18:59.965Z,49.70
2022-10-09T22:21:50.438Z,49.80
2022-10-09T22:24:41.217Z,49.80
2022-10-09T22:27:30.600Z,50.40
2022-10-09T22:30:20.035Z,49.70
2022-10-09T22:33:09.412Z,49.80
2022-10-09T22:36:11.153Z,49.80
2022-10-09T22:39:03.195Z,50.00
2022-10-09T22:41:53.887Z,49.90
2022-10-09T22:44:43.245Z,50.00
2022-10-09T22:47:32.567Z,50.00
2022-10-09T22:50:21.921Z,50.20
2022-10-09T22:53:11.204Z,50.20
2022-10-09T22:56:00.594Z,50.20
2022-10-09T22:58:53.082Z,50.20
2022-10-09T23:01:48.435Z,50.10
2022-10-09T23:04:37.969Z,50.00
2022-10-09T23:07:28.200Z,49.90
2022-10-09T23:10:17.732Z,49.90
2022-10-09T23:13:07.106Z,49.80
2022-10-09T23:15:57.841Z,49.80
2022-10-09T23:18:47.181Z,49.80
2022-10-09T23:21:38.441Z,50.00
2022-10-09T23:24:27.858Z,50.00
2022-10-09T23:27:17.190Z,50.00
2022-10-09T23:30:07.909Z,50.10
2022-10-09T23:32:58.675Z,50.10
2022-10-09T23:35:48.023Z,50.20
2022-10-09T23:38:38.614Z,50.20
2022-10-09T23:41:29.831Z,50.10
2022-10-09T23:44:22.223Z,50.10
2022-10-09T23:47:11.786Z,50.10
2022-10-09T23:50:02.650Z,50.10
2022-10-09T23:52:52.409Z,50.10
2022-10-09T23:55:41.957Z,50.10
2022-10-09T23:58:31.231Z,50.10
